createdAt,value
2019-01-19T00:00:08.110Z,58.11
2019-01-19T00:03:11.329Z,59.35
2019-01-19T00:06:45.672Z,59.65
2019-01-19T00:10:35.680Z,59.57
2019-01-19T00:13:59.329Z,59.80
2019-01-19T00:17:00.362Z,59.81
2019-01-19T00:20:43.781Z,59.21
2019-01-19T00:24:11.682Z,58.68
2019-01-19T00:27:28.392Z,58.56
2019-01-19T00:30:58.715Z,58.65
2019-01-19T00:34:14.031Z,58.64
2019-01-19T00:37:03.670Z,59.94
2019-01-19T00:40:52.776Z,59.94
2019-01-19T00:43:57.538Z,60.25
2019-01-19T00:47:23.080Z,60.25
2019-01-19T00:50:48.141Z,60.36
2019-01-19T00:53:30.793Z,60.36
2019-01-19T00:56:46.893Z,60.31
2019-01-19T00:59:35.289Z,60.31
2019-01-19T01:02:27.663Z,59.94
2019-01-19T01:05:25.461Z,59.78
2019-01-19T01:11:38.800Z,60.67
2019-01-19T01:15:04.651Z,60.54
2019-01-19T01:18:27.312Z,60.60
2019-01-19T01:21:47.705Z,60.96
2019-01-19T01:25:21.286Z,60.94
2019-01-19T01:28:29.659Z,60.34
2019-01-19T01:31:29.285Z,60.06
2019-01-19T01:34:56.080Z,59.67
2019-01-19T01:38:15.761Z,59.44
2019-01-19T01:41:39.321Z,58.90
2019-01-19T01:44:56.686Z,58.75
2019-01-19T01:48:20.743Z,58.06
2019-01-19T01:51:05.283Z,58.08
2019-01-19T01:54:19.556Z,57.48
2019-01-19T01:56:51.707Z,57.51
2019-01-19T01:59:59.593Z,57.48
2019-01-19T02:02:56.945Z,57.44
2019-01-19T02:06:07.119Z,57.84
2019-01-19T02:08:57.284Z,57.84
2019-01-19T02:11:49.118Z,57.98
2019-01-19T02:14:40.689Z,58.26
2019-01-19T02:18:10.718Z,58.74
2019-01-19T02:21:26.289Z,58.93
2019-01-19T02:24:41.535Z,58.75
2019-01-19T02:27:55.955Z,58.69
2019-01-19T02:31:45.113Z,58.69
2019-01-19T02:35:02.718Z,59.55
2019-01-19T02:38:10.387Z,59.55
2019-01-19T02:41:36.282Z,59.61
2019-01-19T02:44:40.275Z,59.61
2019-01-19T02:47:40.622Z,59.53
2019-01-19T02:50:44.295Z,59.95
2019-01-19T02:53:44.369Z,59.95
2019-01-19T02:56:40.531Z,59.17
2019-01-19T02:59:26.667Z,59.11
2019-01-19T03:02:54.690Z,59.11
2019-01-19T03:06:05.285Z,59.15
2019-01-19T03:09:32.379Z,59.35
2019-01-19T03:12:58.653Z,59.34
2019-01-19T03:16:08.586Z,59.26
2019-01-19T03:19:41.123Z,59.36
2019-01-19T03:22:54.701Z,58.48
2019-01-19T03:25:57.149Z,57.78
2019-01-19T03:29:34.584Z,57.63
2019-01-19T03:33:10.306Z,58.82
2019-01-19T03:36:30.897Z,59.10
2019-01-19T03:40:17.140Z,59.34
2019-01-19T03:43:23.604Z,59.49
2019-01-19T03:47:01.342Z,59.64
2019-01-19T03:50:24.296Z,59.76
2019-01-19T03:54:16.744Z,60.28
2019-01-19T03:57:06.337Z,60.28
2019-01-19T04:00:26.238Z,59.88
2019-01-19T04:03:39.711Z,60.06
2019-01-19T04:06:27.909Z,60.39
2019-01-19T04:09:48.675Z,60.39
2019-01-19T04:13:09.272Z,59.32
2019-01-19T04:16:49.751Z,59.34
2019-01-19T04:20:15.591Z,59.65
2019-01-19T04:22:55.700Z,60.18
2019-01-19T04:25:59.686Z,60.49
2019-01-19T04:28:31.964Z,60.59
2019-01-19T04:31:03.945Z,60.58
2019-01-19T04:33:35.940Z,60.67
2019-01-19T04:36:09.109Z,60.67
2019-01-19T04:38:42.087Z,60.50
2019-01-19T04:41:14.136Z,60.50
2019-01-19T04:43:44.876Z,60.20
2019-01-19T04:46:16.952Z,60.22
2019-01-19T04:48:49.289Z,60.14
2019-01-19T04:51:21.307Z,60.35
2019-01-19T04:53:51.873Z,60.72
2019-01-19T04:56:24.177Z,61.01
2019-01-19T04:58:54.879Z,60.66
2019-01-19T05:01:26.919Z,60.68
2019-01-19T05:03:58.958Z,60.75
2019-01-19T05:06:30.944Z,60.83
2019-01-19T05:09:03.296Z,60.83
2019-01-19T05:11:35.146Z,60.52
2019-01-19T05:14:07.320Z,59.77
2019-01-19T05:16:39.104Z,59.77
2019-01-19T05:19:11.277Z,59.64
2019-01-19T05:21:42.516Z,59.80
2019-01-19T05:24:14.665Z,60.26
2019-01-19T05:26:46.761Z,60.26
2019-01-19T05:29:18.784Z,60.33
2019-01-19T05:31:50.955Z,60.33
2019-01-19T05:34:22.946Z,60.41
2019-01-19T05:36:55.125Z,60.66
2019-01-19T05:39:27.283Z,60.66
2019-01-19T05:41:57.708Z,60.46
2019-01-19T05:44:29.781Z,60.67
2019-01-19T05:47:01.934Z,60.79
2019-01-19T05:49:33.962Z,60.83
2019-01-19T05:52:06.349Z,60.59
2019-01-19T05:54:37.029Z,60.26
2019-01-19T05:57:09.284Z,59.99
2019-01-19T05:59:39.976Z,59.92
2019-01-19T06:02:12.295Z,60.20
2019-01-19T06:04:42.876Z,60.20
2019-01-19T06:07:14.929Z,60.09
2019-01-19T06:09:47.271Z,59.90
2019-01-19T06:12:17.874Z,59.80
2019-01-19T06:14:49.954Z,60.04
2019-01-19T06:17:23.413Z,60.28
2019-01-19T06:19:55.368Z,60.02
2019-01-19T06:22:26.118Z,59.03
2019-01-19T06:24:58.317Z,58.64
2019-01-19T06:27:29.016Z,58.91
2019-01-19T06:30:01.154Z,58.84
2019-01-19T06:32:33.371Z,58.84
2019-01-19T06:35:05.800Z,59.04
2019-01-19T06:37:37.959Z,59.04
2019-01-19T06:40:11.999Z,59.16
2019-01-19T06:42:44.360Z,59.11
2019-01-19T06:45:25.342Z,58.77
2019-01-19T06:47:57.911Z,59.18
2019-01-19T06:50:29.953Z,59.30
2019-01-19T06:53:01.953Z,59.11
2019-01-19T06:55:36.762Z,59.07
2019-01-19T06:58:08.907Z,58.99
2019-01-19T07:00:40.952Z,58.99
2019-01-19T07:03:13.086Z,58.38
2019-01-19T07:05:45.115Z,58.02
2019-01-19T07:08:16.016Z,57.90
2019-01-19T07:10:48.284Z,58.17
2019-01-19T07:13:18.712Z,58.24
2019-01-19T07:15:52.217Z,57.99
2019-01-19T07:18:24.287Z,58.09
2019-01-19T07:20:54.997Z,58.09
2019-01-19T07:23:26.943Z,56.71
2019-01-19T07:25:58.948Z,56.71
2019-01-19T07:28:31.154Z,56.92
2019-01-19T07:31:01.994Z,56.97
2019-01-19T07:33:34.141Z,56.81
2019-01-19T07:36:06.361Z,56.65
2019-01-19T07:38:38.684Z,56.48
2019-01-19T07:41:10.870Z,56.48
2019-01-19T07:43:43.280Z,55.72
2019-01-19T07:46:14.285Z,55.14
2019-01-19T07:48:45.028Z,55.28
2019-01-19T07:51:17.106Z,54.92
2019-01-19T07:53:49.279Z,54.69
2019-01-19T07:56:20.024Z,53.99
2019-01-19T07:58:52.276Z,53.99
2019-01-19T08:01:24.313Z,54.61
2019-01-19T08:03:56.279Z,53.59
2019-01-19T08:06:47.713Z,49.97
2019-01-19T08:09:20.578Z,49.97
2019-01-19T08:11:52.684Z,49.13
2019-01-19T08:14:24.947Z,48.69
2019-01-19T08:16:57.123Z,48.53
2019-01-19T08:19:29.283Z,48.32
2019-01-19T08:22:00.002Z,47.87
2019-01-19T08:24:32.257Z,46.94
2019-01-19T08:27:03.396Z,46.89
2019-01-19T08:29:35.671Z,46.94
2019-01-19T08:32:08.272Z,46.94
2019-01-19T08:34:40.464Z,46.90
2019-01-19T08:37:13.111Z,46.22
2019-01-19T08:39:46.238Z,46.02
2019-01-19T08:42:16.863Z,46.02
2019-01-19T08:44:49.081Z,46.28
2019-01-19T08:47:21.083Z,45.16
2019-01-19T08:49:53.275Z,44.14
2019-01-19T08:52:23.864Z,44.12
2019-01-19T08:54:56.076Z,44.12
2019-01-19T08:57:28.298Z,44.07
2019-01-19T09:00:00.346Z,43.94
2019-01-19T09:02:32.303Z,42.58
2019-01-19T09:05:04.279Z,42.58
2019-01-19T09:07:36.870Z,42.53
2019-01-19T09:10:11.953Z,42.40
2019-01-19T09:12:43.943Z,44.95
2019-01-19T09:15:17.272Z,45.16
2019-01-19T09:17:47.830Z,43.49
2019-01-19T09:20:20.278Z,42.62
2019-01-19T09:22:54.284Z,41.51
2019-01-19T09:25:25.052Z,39.14
2019-01-19T09:27:57.321Z,38.70
2019-01-19T09:30:29.274Z,39.14
2019-01-19T09:33:00.681Z,38.87
2019-01-19T09:35:33.205Z,39.08
2019-01-19T09:38:05.564Z,38.89
2019-01-19T09:42:31.457Z,36.30
2019-01-19T09:45:03.952Z,36.30
2019-01-19T09:47:36.337Z,36.68
2019-01-19T09:50:10.862Z,35.50
2019-01-19T09:52:43.367Z,34.35
2019-01-19T09:55:15.876Z,34.30
2019-01-19T09:57:48.284Z,34.30
2019-01-19T10:00:19.234Z,33.40
2019-01-19T10:02:50.115Z,32.64
2019-01-19T10:05:22.686Z,32.88
2019-01-19T10:07:55.475Z,32.65
2019-01-19T10:10:28.268Z,32.68
2019-01-19T10:13:00.311Z,32.68
2019-01-19T10:15:32.275Z,32.92
2019-01-19T10:18:02.800Z,31.95
2019-01-19T10:20:35.103Z,31.95
2019-01-19T10:23:06.007Z,31.69
2019-01-19T10:25:38.278Z,31.70
2019-01-19T10:28:08.954Z,30.55
2019-01-19T10:30:41.276Z,30.55
2019-01-19T10:33:12.291Z,30.38
2019-01-19T10:35:44.494Z,29.96
2019-01-19T10:38:16.754Z,29.66
2019-01-19T10:40:49.276Z,30.04
2019-01-19T10:43:19.731Z,30.14
2019-01-19T10:45:51.948Z,30.17
2019-01-19T10:48:24.283Z,30.41
2019-01-19T10:50:54.864Z,30.35
2019-01-19T10:53:27.072Z,30.28
2019-01-19T10:55:59.276Z,30.28
2019-01-19T10:58:30.121Z,29.86
2019-01-19T11:01:02.274Z,29.60
2019-01-19T11:03:33.079Z,29.25
2019-01-19T11:06:06.277Z,29.18
2019-01-19T11:08:36.969Z,28.71
2019-01-19T11:11:09.377Z,28.95
2019-01-19T11:13:41.358Z,28.93
2019-01-19T11:16:14.367Z,27.44
2019-01-19T11:18:46.306Z,27.07
2019-01-19T11:21:18.276Z,27.07
2019-01-19T11:23:50.086Z,27.06
2019-01-19T11:26:20.803Z,26.94
2019-01-19T11:28:52.949Z,26.34
2019-01-19T11:31:24.946Z,25.20
2019-01-19T11:33:57.365Z,23.95
2019-01-19T11:36:29.327Z,23.22
2019-01-19T11:39:01.727Z,22.26
2019-01-19T11:41:34.273Z,22.26
2019-01-19T11:44:05.127Z,21.20
2019-01-19T11:46:36.982Z,20.69
2019-01-19T11:49:10.211Z,19.64
2019-01-19T11:51:41.058Z,18.79
2019-01-19T11:54:13.487Z,18.44
2019-01-19T11:56:45.888Z,17.21
2019-01-19T11:59:18.273Z,17.21
2019-01-19T12:01:50.462Z,16.74
2019-01-19T12:04:22.783Z,16.06
2019-01-19T12:06:55.265Z,16.06
2019-01-19T12:09:27.388Z,16.21
2019-01-19T12:11:59.311Z,15.93
2019-01-19T12:14:31.769Z,16.46
2019-01-19T12:17:04.313Z,17.58
2019-01-19T12:19:37.364Z,18.39
2019-01-19T12:22:09.638Z,21.43
2019-01-19T12:24:42.082Z,21.43
2019-01-19T12:27:12.775Z,22.44
2019-01-19T12:29:45.272Z,23.02
2019-01-19T12:32:17.283Z,23.17
2019-01-19T12:34:48.086Z,22.25
2019-01-19T12:37:20.239Z,20.78
2019-01-19T12:39:52.667Z,19.42
2019-01-19T12:42:25.117Z,18.03
2019-01-19T12:44:56.101Z,16.69
2019-01-19T12:47:27.272Z,16.05
2019-01-19T12:50:00.362Z,14.84
2019-01-19T12:52:32.610Z,14.84
2019-01-19T12:55:04.914Z,14.83
2019-01-19T12:57:37.260Z,14.76
2019-01-19T13:00:12.961Z,14.54
2019-01-19T13:02:45.208Z,14.16
2019-01-19T13:05:25.379Z,14.24
2019-01-19T13:07:57.711Z,14.40
2019-01-19T13:10:36.276Z,14.21
2019-01-19T13:13:29.269Z,14.13
2019-01-19T13:16:59.697Z,13.74
2019-01-19T13:20:36.770Z,13.42
2019-01-19T13:23:55.573Z,13.03
2019-01-19T13:27:16.245Z,12.42
2019-01-19T13:30:46.435Z,12.60
2019-01-19T13:34:17.398Z,14.74
2019-01-19T13:37:41.282Z,16.83
2019-01-19T13:41:13.695Z,16.83
2019-01-19T13:44:34.278Z,18.61
2019-01-19T13:47:49.709Z,20.53
2019-01-19T13:51:20.100Z,21.96
2019-01-19T13:54:46.026Z,24.24
2019-01-19T13:58:17.409Z,24.24
2019-01-19T14:01:38.279Z,24.55
2019-01-19T14:04:20.599Z,24.50
2019-01-19T14:08:00.115Z,24.73
2019-01-19T14:11:09.311Z,24.42
2019-01-19T14:15:10.282Z,24.40
2019-01-19T14:18:02.612Z,24.71
2019-01-19T14:21:24.274Z,24.40
2019-01-19T14:24:42.738Z,24.49
2019-01-19T14:28:11.293Z,24.14
2019-01-19T14:31:34.945Z,23.44
2019-01-19T14:34:45.944Z,23.71
2019-01-19T14:37:56.873Z,23.88
2019-01-19T14:40:53.288Z,24.25
2019-01-19T14:44:11.270Z,25.00
2019-01-19T14:47:28.934Z,25.25
2019-01-19T14:50:54.925Z,26.25
2019-01-19T14:54:35.689Z,28.44
2019-01-19T14:57:56.674Z,29.08
2019-01-19T15:01:09.753Z,30.04
2019-01-19T15:04:07.767Z,30.67
2019-01-19T15:07:32.085Z,32.31
2019-01-19T15:10:16.572Z,33.06
2019-01-19T15:14:21.561Z,33.21
2019-01-19T15:17:48.894Z,33.21
2019-01-19T15:21:02.714Z,33.05
2019-01-19T15:24:16.306Z,33.09
2019-01-19T15:27:49.695Z,33.17
2019-01-19T15:31:13.948Z,32.98
2019-01-19T15:34:47.694Z,33.40
2019-01-19T15:38:13.667Z,33.86
2019-01-19T15:41:54.647Z,33.86
2019-01-19T15:45:42.775Z,33.99
2019-01-19T15:49:29.249Z,35.49
2019-01-19T15:52:32.585Z,34.30
2019-01-19T15:56:07.347Z,34.58
2019-01-19T15:59:31.945Z,34.58
2019-01-19T16:02:59.282Z,34.58
2019-01-19T16:06:35.840Z,37.30
2019-01-19T16:10:12.349Z,39.25
2019-01-19T16:13:10.570Z,37.66
2019-01-19T16:16:34.656Z,37.75
2019-01-19T16:20:01.284Z,37.75
2019-01-19T16:23:15.574Z,39.34
2019-01-19T16:26:33.784Z,39.34
2019-01-19T16:29:51.688Z,39.59
2019-01-19T16:33:29.714Z,38.75
2019-01-19T16:37:12.098Z,38.75
2019-01-19T16:41:07.284Z,38.91
2019-01-19T16:44:11.861Z,39.99
2019-01-19T16:47:43.663Z,39.10
2019-01-19T16:51:03.613Z,39.40
2019-01-19T16:54:59.803Z,40.28
2019-01-19T16:58:49.281Z,38.15
2019-01-19T17:01:43.414Z,38.46
2019-01-19T17:04:57.946Z,38.51
2019-01-19T17:08:04.312Z,38.51
2019-01-19T17:11:37.747Z,38.92
2019-01-19T17:14:58.396Z,39.04
2019-01-19T17:18:07.285Z,40.47
2019-01-19T17:21:03.287Z,40.47
2019-01-19T17:24:15.100Z,40.84
2019-01-19T17:28:08.941Z,41.13
2019-01-19T17:31:53.699Z,42.86
2019-01-19T17:35:30.303Z,41.23
2019-01-19T17:38:41.936Z,42.79
2019-01-19T17:42:18.711Z,43.59
2019-01-19T17:45:51.660Z,41.61
2019-01-19T17:49:23.318Z,43.27
2019-01-19T17:53:17.026Z,41.86
2019-01-19T17:56:37.921Z,42.13
2019-01-19T18:00:37.356Z,39.93
2019-01-19T18:04:27.918Z,39.62
2019-01-19T18:07:43.938Z,40.10
2019-01-19T18:10:49.681Z,40.49
2019-01-19T18:14:53.553Z,42.09
2019-01-19T18:18:13.135Z,42.45
2019-01-19T18:21:18.649Z,40.96
2019-01-19T18:24:37.516Z,41.61
2019-01-19T18:28:15.775Z,41.59
2019-01-19T18:31:51.338Z,40.68
2019-01-19T18:35:04.018Z,41.26
2019-01-19T18:38:54.358Z,40.97
2019-01-19T18:41:58.133Z,40.96
2019-01-19T18:45:01.816Z,41.20
2019-01-19T18:51:45.469Z,41.48
2019-01-19T18:55:15.314Z,41.48
2019-01-19T18:59:19.623Z,41.20
2019-01-19T19:03:06.970Z,41.70
2019-01-19T19:07:09.277Z,41.60
2019-01-19T19:10:12.843Z,43.86
2019-01-19T19:13:29.637Z,44.83
2019-01-19T19:17:11.702Z,44.17
2019-01-19T19:20:32.333Z,43.03
2019-01-19T19:23:38.863Z,43.19
2019-01-19T19:27:13.004Z,43.19
2019-01-19T19:30:33.948Z,43.92
2019-01-19T19:34:03.743Z,44.18
2019-01-19T19:37:01.797Z,43.78
2019-01-19T19:40:31.364Z,44.02
2019-01-19T19:43:50.147Z,44.34
2019-01-19T19:47:28.535Z,44.38
2019-01-19T19:51:00.305Z,45.07
2019-01-19T19:53:33.143Z,45.07
2019-01-19T19:56:02.386Z,45.16
2019-01-19T19:58:33.287Z,45.58
2019-01-19T20:01:03.864Z,46.14
2019-01-19T20:03:36.299Z,46.14
2019-01-19T20:06:09.296Z,46.01
2019-01-19T20:08:40.230Z,46.37
2019-01-19T20:11:11.127Z,46.65
2019-01-19T20:13:43.525Z,46.78
2019-01-19T20:16:16.279Z,46.74
2019-01-19T20:18:47.345Z,47.25
2019-01-19T20:21:19.889Z,47.10
2019-01-19T20:23:52.082Z,47.27
2019-01-19T20:26:24.273Z,47.37
2019-01-19T20:28:55.669Z,47.48
2019-01-19T20:31:28.572Z,47.65
2019-01-19T20:34:00.961Z,47.66
2019-01-19T20:36:33.330Z,48.23
2019-01-19T20:39:04.804Z,48.46
2019-01-19T20:41:37.293Z,48.64
2019-01-19T20:44:09.363Z,49.21
2019-01-19T20:46:41.655Z,49.68
2019-01-19T20:49:13.736Z,49.68
2019-01-19T20:51:46.402Z,50.27
2019-01-19T20:54:18.948Z,50.59
2019-01-19T20:56:51.311Z,50.59
2019-01-19T20:59:23.280Z,50.92
2019-01-19T21:01:53.999Z,51.31
2019-01-19T21:04:26.295Z,51.62
2019-01-19T21:06:57.266Z,51.98
2019-01-19T21:09:29.099Z,52.09
2019-01-19T21:12:01.232Z,52.03
2019-01-19T21:14:35.740Z,52.22
2019-01-19T21:17:08.279Z,52.61
2019-01-19T21:19:39.273Z,52.72
2019-01-19T21:22:10.132Z,52.83
2019-01-19T21:24:42.957Z,53.00
2019-01-19T21:27:15.532Z,53.12
2019-01-19T21:29:48.302Z,53.43
2019-01-19T21:32:19.014Z,53.47
2019-01-19T21:34:51.233Z,53.57
2019-01-19T21:37:22.017Z,53.88
2019-01-19T21:39:54.096Z,54.27
2019-01-19T21:42:26.270Z,54.27
2019-01-19T21:44:56.977Z,54.70
2019-01-19T21:47:29.273Z,55.12
2019-01-19T21:49:59.868Z,55.01
2019-01-19T21:52:31.940Z,54.93
2019-01-19T21:55:04.105Z,54.88
2019-01-19T21:57:34.707Z,54.84
2019-01-19T22:00:10.758Z,55.12
2019-01-19T22:02:42.937Z,55.12
2019-01-19T22:05:15.353Z,55.02
2019-01-19T22:07:45.864Z,54.80
2019-01-19T22:10:19.656Z,54.56
2019-01-19T22:12:51.888Z,54.36
2019-01-19T22:15:24.212Z,54.42
2019-01-19T22:17:54.662Z,54.37
2019-01-19T22:20:26.761Z,54.20
2019-01-19T22:22:58.880Z,54.20
2019-01-19T22:25:30.961Z,54.13
2019-01-19T22:28:02.944Z,54.37
2019-01-19T22:30:34.941Z,54.34
2019-01-19T22:33:07.477Z,54.33
2019-01-19T22:35:42.394Z,54.61
2019-01-19T22:38:14.510Z,54.59
2019-01-19T22:40:53.461Z,54.96
2019-01-19T22:43:27.659Z,54.96
2019-01-19T22:45:59.695Z,54.79
2019-01-19T22:48:31.740Z,54.91
2019-01-19T22:51:11.049Z,54.79
2019-01-19T22:53:37.768Z,54.78
2019-01-19T22:56:09.952Z,54.86
2019-01-19T22:58:41.941Z,54.91
2019-01-19T23:01:38.274Z,54.91
2019-01-19T23:04:09.026Z,54.84
2019-01-19T23:06:41.275Z,55.08
2019-01-19T23:09:12.951Z,55.24
2019-01-19T23:11:45.113Z,55.28
2019-01-19T23:14:17.368Z,55.53
2019-01-19T23:16:49.323Z,55.62
2019-01-19T23:19:21.378Z,55.49
2019-01-19T23:21:52.041Z,55.49
2019-01-19T23:24:24.124Z,55.67
2019-01-19T23:27:01.315Z,55.56
2019-01-19T23:29:32.018Z,55.51
2019-01-19T23:32:04.279Z,55.51
2019-01-19T23:34:34.707Z,55.09
2019-01-19T23:37:06.782Z,55.25
2019-01-19T23:39:38.944Z,55.29
2019-01-19T23:42:10.957Z,55.43
2019-01-19T23:44:43.345Z,55.36
2019-01-19T23:47:14.107Z,55.38
2019-01-19T23:49:44.995Z,55.63
2019-01-19T23:52:17.277Z,56.12
2019-01-19T23:54:47.856Z,56.12
2019-01-19T23:57:20.119Z,55.95
2019-01-19T23:59:52.125Z,55.86
